createdAt,value
2022-08-26T00:00:11.589Z,2.30
2022-08-26T00:01:11.580Z,3.50
2022-08-26T00:02:11.658Z,2.80
2022-08-26T00:03:11.551Z,3.30
2022-08-26T00:04:11.629Z,3.50
2022-08-26T00:05:11.531Z,2.80
2022-08-26T00:06:11.531Z,3.40
2022-08-26T00:07:11.515Z,2.10
2022-08-26T00:08:13.051Z,3.20
2022-08-26T00:09:11.481Z,2.50
2022-08-26T00:10:11.471Z,2.10
2022-08-26T00:11:11.453Z,3.50
2022-08-26T00:12:12.420Z,4.40
2022-08-26T00:13:11.431Z,2.80
2022-08-26T00:14:11.422Z,2.00
2022-08-26T00:15:11.401Z,2.10
2022-08-26T00:16:11.629Z,3.00
2022-08-26T00:17:11.381Z,3.70
2022-08-26T00:18:21.994Z,4.60
2022-08-26T00:19:12.352Z,2.30
2022-08-26T00:20:11.343Z,3.00
2022-08-26T00:21:11.331Z,2.90
2022-08-26T00:22:11.322Z,3.20
2022-08-26T00:23:11.301Z,2.50
2022-08-26T00:24:11.299Z,2.30
2022-08-26T00:25:11.282Z,2.90
2022-08-26T00:26:11.282Z,3.50
2022-08-26T00:27:11.266Z,2.70
2022-08-26T00:28:11.242Z,1.90
2022-08-26T00:29:11.471Z,3.80
2022-08-26T00:30:11.220Z,3.40
2022-08-26T00:31:11.309Z,3.00
2022-08-26T00:32:11.511Z,3.50
2022-08-26T00:33:11.173Z,6.70
2022-08-26T00:34:12.052Z,2.20
2022-08-26T00:35:11.152Z,1.90
2022-08-26T00:36:16.113Z,4.00
2022-08-26T00:37:15.649Z,2.60
2022-08-26T00:38:11.115Z,2.80
2022-08-26T00:39:11.103Z,1.90
2022-08-26T00:40:11.155Z,2.30
2022-08-26T00:41:11.073Z,2.80
2022-08-26T00:42:11.075Z,2.60
2022-08-26T00:43:11.099Z,2.40
2022-08-26T00:44:11.146Z,3.50
2022-08-26T00:45:11.820Z,2.50
2022-08-26T00:46:11.087Z,3.70
2022-08-26T00:47:11.003Z,1.90
2022-08-26T00:48:10.992Z,2.10
2022-08-26T00:49:12.008Z,1.90
2022-08-26T00:50:10.964Z,3.30
2022-08-26T00:51:10.944Z,3.30
2022-08-26T00:52:11.922Z,2.90
2022-08-26T00:53:10.926Z,2.20
2022-08-26T00:54:10.933Z,3.10
2022-08-26T00:55:10.897Z,3.50
2022-08-26T00:56:10.896Z,2.10
2022-08-26T00:57:16.359Z,2.80
2022-08-26T00:58:11.863Z,1.40
2022-08-26T00:59:10.849Z,2.70
2022-08-26T01:00:10.847Z,3.40
2022-08-26T01:01:10.894Z,2.60
2022-08-26T01:02:20.868Z,2.40
2022-08-26T01:03:12.666Z,3.00
2022-08-26T01:04:10.785Z,2.20
2022-08-26T01:05:10.773Z,2.00
2022-08-26T01:06:13.049Z,1.80
2022-08-26T01:07:10.754Z,3.30
2022-08-26T01:08:10.736Z,3.00
2022-08-26T01:09:10.723Z,3.30
2022-08-26T01:10:10.718Z,4.90
2022-08-26T01:11:10.695Z,2.50
2022-08-26T01:12:10.696Z,2.70
2022-08-26T01:13:10.668Z,2.50
2022-08-26T01:14:10.664Z,2.70
2022-08-26T01:15:10.645Z,3.20
2022-08-26T01:16:10.692Z,2.10
2022-08-26T01:17:10.625Z,2.30
2022-08-26T01:18:10.616Z,3.20
2022-08-26T01:19:10.599Z,2.80
2022-08-26T01:20:10.586Z,2.30
2022-08-26T01:21:10.567Z,2.20
2022-08-26T01:22:10.569Z,2.50
2022-08-26T01:23:10.546Z,2.30
2022-08-26T01:24:10.536Z,2.30
2022-08-26T01:25:10.537Z,3.80
2022-08-26T01:26:18.268Z,2.20
2022-08-26T01:27:11.505Z,1.80
2022-08-26T01:28:10.497Z,4.00
2022-08-26T01:29:10.466Z,2.00
2022-08-26T01:30:10.456Z,1.90
2022-08-26T01:31:10.503Z,3.00
2022-08-26T01:32:10.447Z,2.90
2022-08-26T01:33:10.417Z,1.80
2022-08-26T01:34:10.407Z,2.70
2022-08-26T01:35:10.397Z,2.50
2022-08-26T01:36:10.401Z,3.90
2022-08-26T01:37:13.644Z,4.60
2022-08-26T01:38:11.357Z,2.40
2022-08-26T01:39:10.347Z,1.90
2022-08-26T01:40:10.392Z,2.40
2022-08-26T01:41:14.164Z,2.00
2022-08-26T01:42:11.318Z,1.70
2022-08-26T01:43:10.287Z,2.30
2022-08-26T01:44:10.286Z,2.20
2022-08-26T01:45:10.266Z,2.90
2022-08-26T01:46:10.330Z,2.20
2022-08-26T01:47:10.283Z,2.10
2022-08-26T01:48:10.237Z,2.40
2022-08-26T01:49:10.218Z,2.80
2022-08-26T01:50:10.208Z,2.40
2022-08-26T01:51:10.187Z,3.10
2022-08-26T01:52:10.775Z,2.00
2022-08-26T01:53:10.299Z,2.50
2022-08-26T01:54:12.101Z,3.20
2022-08-26T01:55:10.139Z,2.00
2022-08-26T01:56:10.128Z,1.90
2022-08-26T01:57:10.118Z,2.20
2022-08-26T01:58:10.107Z,2.20
2022-08-26T01:59:10.088Z,2.70
2022-08-26T02:00:10.078Z,3.00
2022-08-26T02:01:10.168Z,3.20
2022-08-26T02:02:10.059Z,2.00
2022-08-26T02:03:10.038Z,2.10
2022-08-26T02:04:10.059Z,2.00
2022-08-26T02:05:10.018Z,2.10
2022-08-26T02:06:10.339Z,5.10
2022-08-26T02:07:09.999Z,2.70
2022-08-26T02:08:09.976Z,2.40
2022-08-26T02:09:09.969Z,2.40
2022-08-26T02:10:09.949Z,1.80
2022-08-26T02:11:09.939Z,1.60
2022-08-26T02:12:09.930Z,2.00
2022-08-26T02:13:09.919Z,2.80
2022-08-26T02:14:09.898Z,1.80
2022-08-26T02:15:09.889Z,1.80
2022-08-26T02:16:09.909Z,2.30
2022-08-26T02:17:09.870Z,1.60
2022-08-26T02:18:09.849Z,2.20
2022-08-26T02:19:09.840Z,2.70
2022-08-26T02:20:13.081Z,2.00
2022-08-26T02:21:09.841Z,1.70
2022-08-26T02:22:09.810Z,2.10
2022-08-26T02:23:09.790Z,3.00
2022-08-26T02:24:09.770Z,3.00
2022-08-26T02:25:09.770Z,2.10
2022-08-26T02:26:09.749Z,2.10
2022-08-26T02:27:09.750Z,1.70
2022-08-26T02:28:09.720Z,3.80
2022-08-26T02:29:09.718Z,2.10
2022-08-26T02:30:09.691Z,2.10
2022-08-26T02:31:09.990Z,2.90
2022-08-26T02:32:09.680Z,2.10
2022-08-26T02:33:09.694Z,2.80
2022-08-26T02:34:10.664Z,2.30
2022-08-26T02:35:09.639Z,2.20
2022-08-26T02:36:09.620Z,1.40
2022-08-26T02:37:09.621Z,2.20
2022-08-26T02:38:09.947Z,2.30
2022-08-26T02:39:09.589Z,2.80
2022-08-26T02:40:09.630Z,2.20
2022-08-26T02:41:09.561Z,2.60
2022-08-26T02:42:09.551Z,1.70
2022-08-26T02:43:09.544Z,2.10
2022-08-26T02:44:09.522Z,1.80
2022-08-26T02:45:09.511Z,3.20
2022-08-26T02:46:09.501Z,1.70
2022-08-26T02:47:09.555Z,2.40
2022-08-26T02:48:09.469Z,2.60
2022-08-26T02:49:09.461Z,2.30
2022-08-26T02:50:09.682Z,1.80
2022-08-26T02:51:09.441Z,3.80
2022-08-26T02:52:09.430Z,2.00
2022-08-26T02:53:09.614Z,1.80
2022-08-26T02:54:09.477Z,3.70
2022-08-26T02:55:09.382Z,1.70
2022-08-26T02:56:09.363Z,3.50
2022-08-26T02:57:09.369Z,2.10
2022-08-26T02:58:09.343Z,2.20
2022-08-26T02:59:09.332Z,2.00
2022-08-26T03:00:09.323Z,2.70
2022-08-26T03:01:09.369Z,2.20
2022-08-26T03:02:09.377Z,2.10
2022-08-26T03:03:09.483Z,1.30
2022-08-26T03:04:09.265Z,2.10
2022-08-26T03:05:09.254Z,2.20
2022-08-26T03:06:09.243Z,2.40
2022-08-26T03:07:09.242Z,3.20
2022-08-26T03:08:09.213Z,2.20
2022-08-26T03:09:09.203Z,2.60
2022-08-26T03:10:09.195Z,1.90
2022-08-26T03:11:09.183Z,2.20
2022-08-26T03:12:09.172Z,2.10
2022-08-26T03:13:09.311Z,2.70
2022-08-26T03:14:09.142Z,2.10
2022-08-26T03:15:16.393Z,1.50
2022-08-26T03:16:10.170Z,2.80
2022-08-26T03:17:09.113Z,3.30
2022-08-26T03:18:09.094Z,2.00
2022-08-26T03:19:09.082Z,1.80
2022-08-26T03:20:09.062Z,2.20
2022-08-26T03:21:09.054Z,1.90
2022-08-26T03:22:09.052Z,2.10
2022-08-26T03:23:09.280Z,2.50
2022-08-26T03:24:09.014Z,2.50
2022-08-26T03:25:09.017Z,1.70
2022-08-26T03:26:08.984Z,2.00
2022-08-26T03:27:08.986Z,2.30
2022-08-26T03:28:09.546Z,2.80
2022-08-26T03:29:08.954Z,1.80
2022-08-26T03:30:08.942Z,2.00
2022-08-26T03:31:08.976Z,2.60
2022-08-26T03:32:08.929Z,2.00
2022-08-26T03:33:09.047Z,2.90
2022-08-26T03:34:08.884Z,1.70
2022-08-26T03:35:08.875Z,2.50
2022-08-26T03:36:08.854Z,2.10
2022-08-26T03:37:08.863Z,2.10
2022-08-26T03:38:08.837Z,1.60
2022-08-26T03:39:08.825Z,1.50
2022-08-26T03:40:08.912Z,1.60
2022-08-26T03:41:08.808Z,2.80
2022-08-26T03:42:08.795Z,1.40
2022-08-26T03:43:09.863Z,1.50
2022-08-26T03:44:08.756Z,3.00
2022-08-26T03:45:08.755Z,2.40
2022-08-26T03:46:08.759Z,1.90
2022-08-26T03:47:08.735Z,2.00
2022-08-26T03:48:08.707Z,2.40
2022-08-26T03:49:08.696Z,2.10
2022-08-26T03:50:08.685Z,1.90
2022-08-26T03:51:08.676Z,1.70
2022-08-26T03:52:08.666Z,1.80
2022-08-26T03:53:13.260Z,2.50
2022-08-26T03:54:08.637Z,1.70
2022-08-26T03:55:08.629Z,1.20
2022-08-26T03:56:08.606Z,2.30
2022-08-26T03:57:08.610Z,2.00
2022-08-26T03:58:08.579Z,2.40
2022-08-26T03:59:08.579Z,1.90
2022-08-26T04:00:08.557Z,2.20
2022-08-26T04:01:08.547Z,2.60
2022-08-26T04:02:11.683Z,1.70
2022-08-26T04:03:09.966Z,2.10
2022-08-26T04:04:08.506Z,3.00
2022-08-26T04:05:08.496Z,2.60
2022-08-26T04:06:08.477Z,1.60
2022-08-26T04:07:08.491Z,1.80
2022-08-26T04:08:08.459Z,2.90
2022-08-26T04:09:08.448Z,1.50
2022-08-26T04:10:08.535Z,2.70
2022-08-26T04:11:08.426Z,1.80
2022-08-26T04:12:08.418Z,2.10
2022-08-26T04:13:08.510Z,1.50
2022-08-26T04:14:08.377Z,2.20
2022-08-26T04:15:08.370Z,2.60
2022-08-26T04:16:08.414Z,2.00
2022-08-26T04:17:08.357Z,2.40
2022-08-26T04:18:08.328Z,2.40
2022-08-26T04:19:08.318Z,2.30
2022-08-26T04:20:08.308Z,2.20
2022-08-26T04:21:08.297Z,1.60
2022-08-26T04:22:08.288Z,1.60
2022-08-26T04:23:08.439Z,1.70
2022-08-26T04:24:11.414Z,2.70
2022-08-26T04:25:08.248Z,1.70
2022-08-26T04:26:08.228Z,1.70
2022-08-26T04:27:08.234Z,1.70
2022-08-26T04:28:08.199Z,1.90
2022-08-26T04:29:08.199Z,1.60
2022-08-26T04:30:08.178Z,1.60
2022-08-26T04:31:08.235Z,1.60
2022-08-26T04:32:08.169Z,1.60
2022-08-26T04:33:12.815Z,1.60
2022-08-26T04:34:09.129Z,2.00
2022-08-26T04:35:08.122Z,2.60
2022-08-26T04:36:08.100Z,2.30
2022-08-26T04:37:08.100Z,3.10
2022-08-26T04:38:08.079Z,2.50
2022-08-26T04:39:08.069Z,1.90
2022-08-26T04:40:08.081Z,2.70
2022-08-26T04:41:14.883Z,1.90
2022-08-26T04:42:09.029Z,1.50
2022-08-26T04:43:08.186Z,1.90
2022-08-26T04:44:08.249Z,3.50
2022-08-26T04:45:10.267Z,2.30
2022-08-26T04:46:08.024Z,2.00
2022-08-26T04:47:07.993Z,2.40
2022-08-26T04:48:07.949Z,2.30
2022-08-26T04:49:07.940Z,3.00
2022-08-26T04:50:07.933Z,1.80
2022-08-26T04:51:07.930Z,2.80
2022-08-26T04:52:07.910Z,1.90
2022-08-26T04:53:08.057Z,1.90
2022-08-26T04:54:07.870Z,1.80
2022-08-26T04:55:08.396Z,3.00
2022-08-26T04:56:07.850Z,1.50
2022-08-26T04:57:07.863Z,3.10
2022-08-26T04:58:07.824Z,1.80
2022-08-26T04:59:07.820Z,1.70
2022-08-26T05:00:08.799Z,1.90
2022-08-26T05:01:07.790Z,1.50
2022-08-26T05:02:07.868Z,2.30
2022-08-26T05:03:10.378Z,1.40
2022-08-26T05:04:07.933Z,2.50
2022-08-26T05:05:07.741Z,1.60
2022-08-26T05:06:07.731Z,2.20
2022-08-26T05:07:07.729Z,2.20
2022-08-26T05:08:07.702Z,1.60
2022-08-26T05:09:07.931Z,1.40
2022-08-26T05:10:08.712Z,2.00
2022-08-26T05:11:07.661Z,1.70
2022-08-26T05:12:07.658Z,1.90
2022-08-26T05:13:11.080Z,2.00
2022-08-26T05:14:07.622Z,2.30
2022-08-26T05:15:07.627Z,2.40
2022-08-26T05:16:07.698Z,2.10
2022-08-26T05:17:07.601Z,2.20
2022-08-26T05:18:07.572Z,2.00
2022-08-26T05:19:07.562Z,2.20
2022-08-26T05:20:07.542Z,1.50
2022-08-26T05:21:07.547Z,2.40
2022-08-26T05:22:07.532Z,1.80
2022-08-26T05:23:07.695Z,1.90
2022-08-26T05:24:07.494Z,2.00
2022-08-26T05:25:07.490Z,1.90
2022-08-26T05:26:07.473Z,2.40
2022-08-26T05:27:11.526Z,2.00
2022-08-26T05:28:07.442Z,4.00
2022-08-26T05:29:07.433Z,1.50
2022-08-26T05:30:07.422Z,2.20
2022-08-26T05:31:07.458Z,1.70
2022-08-26T05:32:07.402Z,2.50
2022-08-26T05:33:07.456Z,2.10
2022-08-26T05:34:07.363Z,1.90
2022-08-26T05:35:08.767Z,1.60
2022-08-26T05:36:07.369Z,1.60
2022-08-26T05:37:07.343Z,2.50
2022-08-26T05:38:11.801Z,10.30
2022-08-26T05:39:10.520Z,13.20
2022-08-26T05:40:07.379Z,16.40
2022-08-26T05:41:07.284Z,15.60
2022-08-26T05:42:07.281Z,17.20
2022-08-26T05:43:07.402Z,12.30
2022-08-26T05:44:07.243Z,15.60
2022-08-26T05:45:07.481Z,19.00
2022-08-26T05:46:07.270Z,15.60
2022-08-26T05:47:07.222Z,18.50
2022-08-26T05:48:07.192Z,16.30
2022-08-26T05:49:12.410Z,14.40
2022-08-26T05:50:08.163Z,15.30
2022-08-26T05:51:07.153Z,17.60
2022-08-26T05:52:07.146Z,19.70
2022-08-26T05:53:07.315Z,13.40
2022-08-26T05:54:07.202Z,18.50
2022-08-26T05:55:07.104Z,21.70
2022-08-26T05:56:07.093Z,19.70
2022-08-26T05:57:07.332Z,28.70
2022-08-26T05:58:07.300Z,22.80
2022-08-26T05:59:14.081Z,22.20
2022-08-26T06:00:08.392Z,24.00
2022-08-26T06:01:07.098Z,23.50
2022-08-26T06:02:07.208Z,23.10
2022-08-26T06:03:07.260Z,25.70
2022-08-26T06:04:07.313Z,26.40
2022-08-26T06:05:07.616Z,20.60
2022-08-26T06:06:06.956Z,26.10
2022-08-26T06:07:07.390Z,26.20
2022-08-26T06:08:06.933Z,25.90
2022-08-26T06:09:06.924Z,24.70
2022-08-26T06:10:30.978Z,27.60
2022-08-26T06:11:07.906Z,22.80
2022-08-26T06:12:07.895Z,23.40
2022-08-26T06:13:07.030Z,30.80
2022-08-26T06:14:07.877Z,32.70
2022-08-26T06:15:06.845Z,28.00
2022-08-26T06:16:06.870Z,30.60
2022-08-26T06:17:06.833Z,28.70
2022-08-26T06:18:06.805Z,25.60
2022-08-26T06:19:11.006Z,21.80
2022-08-26T06:20:06.775Z,22.90
2022-08-26T06:21:06.764Z,26.00
2022-08-26T06:22:06.765Z,26.60
2022-08-26T06:23:06.739Z,25.90
2022-08-26T06:24:06.732Z,34.00
2022-08-26T06:25:06.719Z,25.50
2022-08-26T06:26:06.705Z,25.20
2022-08-26T06:27:06.696Z,25.40
2022-08-26T06:28:06.676Z,20.40
2022-08-26T06:29:06.655Z,27.40
2022-08-26T06:30:06.645Z,26.00
2022-08-26T06:31:06.690Z,23.40
2022-08-26T06:32:06.635Z,29.70
2022-08-26T06:33:06.678Z,24.50
2022-08-26T06:34:10.494Z,24.50
2022-08-26T06:35:06.595Z,24.70
2022-08-26T06:36:07.574Z,26.10
2022-08-26T06:37:06.718Z,23.40
2022-08-26T06:38:06.545Z,26.10
2022-08-26T06:39:06.539Z,28.40
2022-08-26T06:40:06.562Z,26.70
2022-08-26T06:41:06.514Z,23.10
2022-08-26T06:42:06.515Z,21.90
2022-08-26T06:43:06.649Z,31.70
2022-08-26T06:44:06.468Z,25.40
2022-08-26T06:45:06.455Z,31.70
2022-08-26T06:46:06.467Z,27.20
2022-08-26T06:47:06.433Z,28.00
2022-08-26T06:48:06.415Z,22.20
2022-08-26T06:49:06.398Z,28.80
2022-08-26T06:50:06.386Z,26.10
2022-08-26T06:51:06.375Z,26.90
2022-08-26T06:52:06.376Z,23.60
2022-08-26T06:53:06.381Z,23.60
2022-08-26T06:54:06.336Z,24.50
2022-08-26T06:55:06.316Z,28.60
2022-08-26T06:56:06.313Z,26.70
2022-08-26T06:57:06.305Z,23.90
2022-08-26T06:58:06.286Z,23.80
2022-08-26T06:59:07.192Z,25.90
2022-08-26T07:00:06.507Z,26.30
2022-08-26T07:01:11.415Z,23.70
2022-08-26T07:02:07.305Z,23.00
2022-08-26T07:03:06.447Z,30.80
2022-08-26T07:04:10.383Z,26.80
2022-08-26T07:05:06.186Z,28.80
2022-08-26T07:06:06.187Z,23.10
2022-08-26T07:07:06.175Z,26.50
2022-08-26T07:08:06.155Z,22.40
2022-08-26T07:09:06.141Z,24.70
2022-08-26T07:10:06.126Z,20.20
2022-08-26T07:11:06.116Z,23.80
2022-08-26T07:12:06.107Z,23.60
2022-08-26T07:13:06.144Z,27.70
2022-08-26T07:14:06.086Z,22.80
2022-08-26T07:15:06.057Z,18.80
2022-08-26T07:16:06.113Z,21.60
2022-08-26T07:17:06.037Z,23.90
2022-08-26T07:18:06.026Z,20.80
2022-08-26T07:19:10.971Z,21.40
2022-08-26T07:20:06.996Z,25.20
2022-08-26T07:21:05.986Z,26.20
2022-08-26T07:22:05.983Z,20.80
2022-08-26T07:23:05.957Z,23.90
2022-08-26T07:24:05.947Z,25.40
2022-08-26T07:25:05.926Z,19.40
2022-08-26T07:26:05.927Z,23.70
2022-08-26T07:27:06.017Z,21.60
2022-08-26T07:28:05.924Z,24.50
2022-08-26T07:29:05.884Z,24.40
2022-08-26T07:30:05.868Z,23.40
2022-08-26T07:31:05.886Z,26.20
2022-08-26T07:32:05.857Z,24.10
2022-08-26T07:33:05.826Z,24.20
2022-08-26T07:34:05.818Z,23.30
2022-08-26T07:35:05.800Z,23.20
2022-08-26T07:36:05.788Z,23.40
2022-08-26T07:37:05.787Z,20.30
2022-08-26T07:38:05.767Z,20.70
2022-08-26T07:39:05.761Z,23.10
2022-08-26T07:40:05.777Z,21.80
2022-08-26T07:41:05.725Z,23.40
2022-08-26T07:42:07.892Z,25.10
2022-08-26T07:43:05.716Z,22.10
2022-08-26T07:44:05.690Z,23.60
2022-08-26T07:45:05.667Z,26.90
2022-08-26T07:46:05.667Z,24.20
2022-08-26T07:47:10.489Z,23.10
2022-08-26T07:48:06.638Z,19.90
2022-08-26T07:49:05.650Z,26.00
2022-08-26T07:50:05.608Z,26.40
2022-08-26T07:51:05.597Z,24.10
2022-08-26T07:52:05.588Z,23.20
2022-08-26T07:53:05.646Z,22.40
2022-08-26T07:54:05.557Z,21.90
2022-08-26T07:55:05.538Z,20.00
2022-08-26T07:56:05.528Z,22.00
2022-08-26T07:57:09.275Z,25.30
2022-08-26T07:58:05.514Z,23.10
2022-08-26T07:59:13.968Z,21.00
2022-08-26T08:00:06.478Z,22.10
2022-08-26T08:01:05.502Z,18.80
2022-08-26T08:02:05.468Z,19.60
2022-08-26T08:03:05.469Z,22.30
2022-08-26T08:04:05.431Z,20.70
2022-08-26T08:05:05.476Z,18.90
2022-08-26T08:06:05.410Z,22.20
2022-08-26T08:07:05.398Z,17.90
2022-08-26T08:08:26.737Z,19.20
2022-08-26T08:09:06.359Z,17.80
2022-08-26T08:10:09.634Z,21.70
2022-08-26T08:11:06.338Z,17.50
2022-08-26T08:12:05.339Z,24.90
2022-08-26T08:13:05.340Z,20.90
2022-08-26T08:14:08.557Z,21.80
2022-08-26T08:15:05.289Z,21.40
2022-08-26T08:16:05.279Z,18.30
2022-08-26T08:17:05.404Z,19.90
2022-08-26T08:18:05.386Z,17.80
2022-08-26T08:19:05.238Z,23.60
2022-08-26T08:20:05.228Z,20.00
2022-08-26T08:21:20.976Z,28.60
2022-08-26T08:22:17.317Z,22.60
2022-08-26T08:23:06.178Z,23.20
2022-08-26T08:24:05.177Z,20.90
2022-08-26T08:25:06.289Z,21.50
2022-08-26T08:26:05.151Z,25.80
2022-08-26T08:27:05.139Z,19.90
2022-08-26T08:28:05.193Z,17.50
2022-08-26T08:29:05.108Z,17.00
2022-08-26T08:30:05.099Z,15.40
2022-08-26T08:31:05.163Z,17.10
2022-08-26T08:32:05.144Z,17.80
2022-08-26T08:33:05.057Z,11.00
2022-08-26T08:34:05.049Z,13.70
2022-08-26T08:35:10.883Z,15.60
2022-08-26T08:36:06.269Z,11.20
2022-08-26T08:37:08.710Z,14.90
2022-08-26T08:38:06.094Z,16.20
2022-08-26T08:39:04.979Z,13.70
2022-08-26T08:40:05.035Z,10.50
2022-08-26T08:41:04.950Z,12.20
2022-08-26T08:42:04.949Z,10.80
2022-08-26T08:43:05.184Z,13.70
2022-08-26T08:44:04.918Z,15.90
2022-08-26T08:45:04.900Z,11.40
2022-08-26T08:46:04.909Z,12.70
2022-08-26T08:47:04.881Z,11.00
2022-08-26T08:48:04.870Z,11.50
2022-08-26T08:49:04.849Z,9.60
2022-08-26T08:50:04.844Z,9.70
2022-08-26T08:51:04.819Z,13.50
2022-08-26T08:52:04.822Z,10.70
2022-08-26T08:53:08.946Z,11.00
2022-08-26T08:54:04.789Z,8.60
2022-08-26T08:55:04.776Z,12.70
2022-08-26T08:56:05.762Z,9.00
2022-08-26T08:57:04.750Z,12.40
2022-08-26T08:58:04.844Z,9.30
2022-08-26T08:59:04.720Z,9.40
2022-08-26T09:00:04.710Z,12.60
2022-08-26T09:01:04.770Z,8.20
2022-08-26T09:02:04.731Z,10.80
2022-08-26T09:03:04.661Z,8.20
2022-08-26T09:04:04.659Z,9.20
2022-08-26T09:05:04.643Z,12.70
2022-08-26T09:06:04.630Z,8.40
2022-08-26T09:07:04.622Z,8.50
2022-08-26T09:08:04.611Z,11.80
2022-08-26T09:09:04.592Z,7.10
2022-08-26T09:10:04.581Z,9.10
2022-08-26T09:11:04.562Z,8.40
2022-08-26T09:12:04.561Z,8.80
2022-08-26T09:13:04.543Z,11.00
2022-08-26T09:14:04.530Z,10.30
2022-08-26T09:15:04.510Z,9.20
2022-08-26T09:16:04.506Z,10.10
2022-08-26T09:17:04.523Z,6.80
2022-08-26T09:18:05.741Z,6.10
2022-08-26T09:19:04.462Z,10.40
2022-08-26T09:20:04.464Z,9.20
2022-08-26T09:21:04.437Z,10.30
2022-08-26T09:22:09.388Z,8.70
2022-08-26T09:23:05.433Z,8.90
2022-08-26T09:24:04.402Z,6.50
2022-08-26T09:25:04.391Z,9.40
2022-08-26T09:26:04.393Z,9.70
2022-08-26T09:27:04.362Z,8.60
2022-08-26T09:28:04.446Z,7.10
2022-08-26T09:29:04.343Z,13.20
2022-08-26T09:30:04.331Z,8.20
2022-08-26T09:31:07.941Z,7.70
2022-08-26T09:32:05.312Z,8.60
2022-08-26T09:33:10.201Z,8.40
2022-08-26T09:34:05.277Z,7.00
2022-08-26T09:35:04.260Z,7.40
2022-08-26T09:36:04.251Z,6.90
2022-08-26T09:37:04.661Z,7.40
2022-08-26T09:38:04.861Z,9.00
2022-08-26T09:39:04.408Z,7.70
2022-08-26T09:40:04.246Z,7.60
2022-08-26T09:41:05.114Z,8.40
2022-08-26T09:42:04.182Z,6.30
2022-08-26T09:43:04.189Z,10.00
2022-08-26T09:44:04.154Z,6.10
2022-08-26T09:45:04.132Z,8.80
2022-08-26T09:46:04.175Z,8.20
2022-08-26T09:47:04.112Z,7.30
2022-08-26T09:48:04.204Z,6.40
2022-08-26T09:49:04.102Z,9.00
2022-08-26T09:50:04.099Z,8.40
2022-08-26T09:51:04.294Z,9.10
2022-08-26T09:52:04.053Z,7.60
2022-08-26T09:53:04.032Z,10.70
2022-08-26T09:54:05.765Z,8.10
2022-08-26T09:55:04.013Z,7.00
2022-08-26T09:56:04.013Z,9.30
2022-08-26T09:57:04.005Z,6.80
2022-08-26T09:58:06.780Z,7.40
2022-08-26T09:59:04.953Z,5.90
2022-08-26T10:00:03.954Z,7.40
2022-08-26T10:01:03.955Z,8.40
2022-08-26T10:02:03.970Z,9.40
2022-08-26T10:03:04.909Z,8.10
2022-08-26T10:04:03.945Z,10.90
2022-08-26T10:05:09.004Z,9.60
2022-08-26T10:06:04.863Z,9.80
2022-08-26T10:07:03.865Z,11.70
2022-08-26T10:08:03.844Z,16.20
2022-08-26T10:09:08.232Z,13.60
2022-08-26T10:10:04.858Z,11.70
2022-08-26T10:11:03.794Z,11.50
2022-08-26T10:12:03.805Z,10.10
2022-08-26T10:13:03.774Z,14.00
2022-08-26T10:14:03.766Z,15.40
2022-08-26T10:15:03.752Z,10.70
2022-08-26T10:16:03.744Z,12.70
2022-08-26T10:17:03.787Z,13.90
2022-08-26T10:18:03.778Z,13.10
2022-08-26T10:25:18.072Z,21.90
2022-08-26T10:26:18.280Z,21.10
2022-08-26T10:27:18.788Z,19.00
2022-08-26T10:28:17.786Z,19.10
2022-08-26T10:29:17.693Z,21.60
2022-08-26T10:30:18.049Z,21.80
2022-08-26T10:31:17.857Z,19.20
2022-08-26T10:32:17.738Z,20.70
2022-08-26T10:33:18.946Z,21.70
2022-08-26T10:34:17.897Z,24.40
2022-08-26T10:35:17.714Z,18.50
2022-08-26T10:36:20.348Z,23.00
2022-08-26T10:37:17.663Z,18.60
2022-08-26T10:38:17.752Z,21.10
2022-08-26T10:39:17.568Z,19.00
2022-08-26T10:40:17.696Z,21.90
2022-08-26T10:41:18.237Z,21.70
2022-08-26T10:42:17.816Z,24.20
2022-08-26T10:43:17.532Z,23.30
2022-08-26T10:44:17.432Z,19.20
2022-08-26T10:45:17.596Z,22.50
2022-08-26T10:46:17.464Z,19.70
2022-08-26T10:47:17.464Z,28.20
2022-08-26T10:48:17.452Z,19.00
2022-08-26T10:49:17.428Z,17.10
2022-08-26T10:50:17.964Z,18.10
2022-08-26T10:51:17.385Z,21.80
2022-08-26T10:52:17.771Z,20.10
2022-08-26T10:53:17.362Z,19.40
2022-08-26T10:54:17.587Z,20.30
2022-08-26T10:55:17.336Z,19.20
2022-08-26T10:56:19.179Z,20.50
2022-08-26T10:57:17.302Z,20.90
2022-08-26T10:58:26.112Z,23.40
2022-08-26T10:59:18.342Z,19.60
2022-08-26T11:00:17.438Z,25.50
2022-08-26T11:01:17.698Z,16.00
2022-08-26T11:02:22.817Z,17.60
2022-08-26T11:03:22.499Z,20.10
2022-08-26T11:04:17.563Z,21.50
2022-08-26T11:05:17.237Z,18.90
2022-08-26T11:06:17.406Z,20.90
2022-08-26T11:07:17.197Z,18.50
2022-08-26T11:08:17.162Z,18.60
2022-08-26T11:09:17.652Z,22.60
2022-08-26T11:10:18.222Z,23.10
2022-08-26T11:11:17.202Z,19.50
2022-08-26T11:12:17.465Z,23.20
2022-08-26T11:13:17.157Z,19.50
2022-08-26T11:14:17.281Z,16.70
2022-08-26T11:15:18.220Z,18.50
2022-08-26T11:16:17.125Z,21.70
2022-08-26T11:17:17.014Z,20.40
2022-08-26T11:18:17.414Z,21.10
2022-08-26T11:19:17.115Z,20.70
2022-08-26T11:20:17.152Z,19.40
2022-08-26T11:21:17.066Z,15.20
2022-08-26T11:22:18.324Z,17.90
2022-08-26T11:23:17.033Z,16.30
2022-08-26T11:24:17.276Z,20.30
2022-08-26T11:25:18.191Z,18.80
2022-08-26T11:26:37.736Z,17.40
2022-08-26T11:27:18.486Z,22.20
2022-08-26T11:28:17.363Z,18.20
2022-08-26T11:29:16.888Z,18.60
2022-08-26T11:30:18.278Z,18.30
2022-08-26T11:31:16.948Z,21.30
2022-08-26T11:32:17.212Z,17.70
2022-08-26T11:33:17.096Z,20.60
2022-08-26T11:34:16.812Z,16.70
2022-08-26T11:35:16.904Z,18.00
2022-08-26T11:36:16.983Z,20.60
2022-08-26T11:37:16.902Z,16.00
2022-08-26T11:38:17.029Z,17.10
2022-08-26T11:39:16.952Z,20.80
2022-08-26T11:40:16.778Z,20.50
2022-08-26T11:41:16.809Z,16.20
2022-08-26T11:42:16.899Z,18.10
2022-08-26T11:43:17.231Z,17.30
2022-08-26T11:44:16.747Z,14.70
2022-08-26T11:45:16.855Z,18.70
2022-08-26T11:46:16.922Z,24.10
2022-08-26T11:47:16.776Z,19.80
2022-08-26T11:48:16.997Z,17.80
2022-08-26T11:49:16.732Z,17.60
2022-08-26T11:50:16.782Z,19.20
2022-08-26T11:51:16.711Z,16.50
2022-08-26T11:52:16.742Z,16.20
2022-08-26T11:53:16.847Z,14.20
2022-08-26T11:54:16.717Z,15.80
2022-08-26T11:55:17.556Z,19.50
2022-08-26T11:56:16.798Z,16.70
2022-08-26T11:57:17.215Z,18.10
2022-08-26T11:58:16.857Z,17.00
2022-08-26T11:59:16.545Z,13.30
2022-08-26T12:00:22.196Z,13.60
2022-08-26T12:01:17.581Z,14.00
2022-08-26T12:02:18.119Z,14.40
2022-08-26T12:03:16.545Z,14.60
2022-08-26T12:04:16.697Z,13.40
2022-08-26T12:05:16.386Z,13.50
2022-08-26T12:06:16.581Z,15.30
2022-08-26T12:07:16.513Z,12.90
2022-08-26T12:08:16.476Z,12.90
2022-08-26T12:09:16.558Z,12.60
2022-08-26T12:10:16.523Z,13.70
2022-08-26T12:11:16.472Z,15.40
2022-08-26T12:12:16.660Z,13.20
2022-08-26T12:13:16.398Z,14.10
2022-08-26T12:14:16.348Z,13.60
2022-08-26T12:15:16.323Z,13.40
2022-08-26T12:16:16.447Z,11.10
2022-08-26T12:17:16.269Z,11.40
2022-08-26T12:18:16.246Z,9.50
2022-08-26T12:19:16.271Z,14.00
2022-08-26T12:20:16.212Z,12.30
2022-08-26T12:21:16.233Z,11.00
2022-08-26T12:22:16.217Z,11.30
2022-08-26T12:23:16.186Z,14.80
2022-08-26T12:24:16.124Z,11.90
2022-08-26T12:25:16.157Z,19.10
2022-08-26T12:26:16.106Z,13.20
2022-08-26T12:27:16.095Z,13.80
2022-08-26T12:28:16.184Z,12.50
2022-08-26T12:29:26.740Z,13.50
2022-08-26T12:30:19.339Z,16.20
2022-08-26T12:31:16.127Z,13.80
2022-08-26T12:32:16.026Z,10.70
2022-08-26T12:33:22.113Z,12.10
2022-08-26T12:34:17.909Z,10.40
2022-08-26T12:35:16.046Z,13.10
2022-08-26T12:36:15.975Z,12.50
2022-08-26T12:37:16.028Z,13.00
2022-08-26T12:38:16.016Z,8.80
2022-08-26T12:39:15.973Z,12.60
2022-08-26T12:40:16.044Z,14.20
2022-08-26T12:41:16.186Z,11.10
2022-08-26T12:42:15.960Z,13.40
2022-08-26T12:43:15.990Z,12.30
2022-08-26T12:44:15.922Z,14.60
2022-08-26T12:45:15.858Z,16.20
2022-08-26T12:46:15.915Z,13.40
2022-08-26T12:47:15.907Z,13.50
2022-08-26T12:48:16.846Z,13.30
2022-08-26T12:49:15.836Z,14.90
2022-08-26T12:50:15.888Z,11.70
2022-08-26T12:51:15.829Z,9.90
2022-08-26T12:52:15.772Z,8.90
2022-08-26T12:53:15.778Z,12.70
2022-08-26T12:54:15.737Z,8.60
2022-08-26T12:55:15.811Z,9.10
2022-08-26T12:56:15.780Z,9.70
2022-08-26T12:57:15.738Z,12.20
2022-08-26T12:58:15.731Z,13.80
2022-08-26T12:59:16.422Z,7.50
2022-08-26T13:00:15.689Z,8.90
2022-08-26T13:01:15.859Z,9.80
2022-08-26T13:02:15.833Z,12.30
2022-08-26T13:03:15.687Z,10.00
2022-08-26T13:04:15.894Z,8.80
2022-08-26T13:05:15.750Z,9.70
2022-08-26T13:06:16.317Z,13.40
2022-08-26T13:07:15.656Z,9.80
2022-08-26T13:08:15.718Z,9.80
2022-08-26T13:09:15.652Z,13.70
2022-08-26T13:10:15.665Z,10.10
2022-08-26T13:11:15.576Z,9.40
2022-08-26T13:12:15.608Z,8.30